sensor_id;sensor_type;location;lat;lon;timestamp;temperature;humidity
15967;DHT22;15175;48.154;11.534;2024-02-15T00:03:14;10.00;99.90
15967;DHT22;15175;48.154;11.534;2024-02-15T00:09:16;10.00;99.90
15967;DHT22;15175;48.154;11.534;2024-02-15T00:15:20;10.00;99.90
15967;DHT22;15175;48.154;11.534;2024-02-15T00:21:22;10.00;99.90
15967;DHT22;15175;48.154;11.534;2024-02-15T00:27:24;10.00;99.90
15967;DHT22;15175;48.154;11.534;2024-02-15T00:33:28;10.00;99.90
15967;DHT22;15175;48.154;11.534;2024-02-15T00:39:30;9.90;99.90
15967;DHT22;15175;48.154;11.534;2024-02-15T00:45:33;9.90;99.90
15967;DHT22;15175;48.154;11.534;2024-02-15T00:51:36;9.90;99.90
15967;DHT22;15175;48.154;11.534;2024-02-15T00:57:39;9.90;99.90
15967;DHT22;15175;48.154;11.534;2024-02-15T01:03:41;9.90;99.90
15967;DHT22;15175;48.154;11.534;2024-02-15T01:09:44;10.00;99.90
15967;DHT22;15175;48.154;11.534;2024-02-15T01:15:47;10.00;99.90
15967;DHT22;15175;48.154;11.534;2024-02-15T01:21:49;10.00;99.90
15967;DHT22;15175;48.154;11.534;2024-02-15T01:27:53;10.00;99.90
15967;DHT22;15175;48.154;11.534;2024-02-15T01:33:55;9.90;99.90
15967;DHT22;15175;48.154;11.534;2024-02-15T01:39:57;9.90;99.90
15967;DHT22;15175;48.154;11.534;2024-02-15T01:46:01;9.80;99.90
15967;DHT22;15175;48.154;11.534;2024-02-15T01:52:07;9.80;99.90
15967;DHT22;15175;48.154;11.534;2024-02-15T01:58:11;9.80;99.90
15967;DHT22;15175;48.154;11.534;2024-02-15T02:04:15;9.70;99.90
15967;DHT22;15175;48.154;11.534;2024-02-15T02:10:17;9.70;99.90
15967;DHT22;15175;48.154;11.534;2024-02-15T02:16:26;9.70;99.90
15967;DHT22;15175;48.154;11.534;2024-02-15T02:22:30;9.70;99.90
15967;DHT22;15175;48.154;11.534;2024-02-15T02:28:35;9.70;99.90
15967;DHT22;15175;48.154;11.534;2024-02-15T02:34:37;9.70;99.90
15967;DHT22;15175;48.154;11.534;2024-02-15T02:40:39;9.60;99.90
15967;DHT22;15175;48.154;11.534;2024-02-15T02:46:43;9.60;99.90
15967;DHT22;15175;48.154;11.534;2024-02-15T02:52:45;9.60;99.90
15967;DHT22;15175;48.154;11.534;2024-02-15T02:58:49;9.60;99.90
15967;DHT22;15175;48.154;11.534;2024-02-15T03:04:52;9.50;99.90
15967;DHT22;15175;48.154;11.534;2024-02-15T03:10:55;9.50;99.90
15967;DHT22;15175;48.154;11.534;2024-02-15T03:16:57;9.50;99.90
15967;DHT22;15175;48.154;11.534;2024-02-15T03:23:01;9.50;99.90
15967;DHT22;15175;48.154;11.534;2024-02-15T03:29:04;9.50;99.90
15967;DHT22;15175;48.154;11.534;2024-02-15T03:35:06;9.50;99.90
15967;DHT22;15175;48.154;11.534;2024-02-15T03:41:10;9.50;99.90
15967;DHT22;15175;48.154;11.534;2024-02-15T03:47:12;9.40;99.90
15967;DHT22;15175;48.154;11.534;2024-02-15T03:53:15;9.40;99.90
15967;DHT22;15175;48.154;11.534;2024-02-15T03:59:19;9.50;99.90
15967;DHT22;15175;48.154;11.534;2024-02-15T04:05:25;9.50;99.90
15967;DHT22;15175;48.154;11.534;2024-02-15T04:11:28;9.50;99.90
15967;DHT22;15175;48.154;11.534;2024-02-15T04:17:32;9.40;99.90
15967;DHT22;15175;48.154;11.534;2024-02-15T04:23:35;9.40;99.90
15967;DHT22;15175;48.154;11.534;2024-02-15T04:29:37;9.40;99.90
15967;DHT22;15175;48.154;11.534;2024-02-15T04:35:43;9.30;99.90
15967;DHT22;15175;48.154;11.534;2024-02-15T04:41:45;9.30;99.90
15967;DHT22;15175;48.154;11.534;2024-02-15T04:47:48;9.10;99.90
15967;DHT22;15175;48.154;11.534;2024-02-15T04:53:54;9.00;99.90
15967;DHT22;15175;48.154;11.534;2024-02-15T04:59:58;9.00;99.90
15967;DHT22;15175;48.154;11.534;2024-02-15T05:06:00;8.90;99.90
15967;DHT22;15175;48.154;11.534;2024-02-15T05:12:07;8.80;99.90
15967;DHT22;15175;48.154;11.534;2024-02-15T05:18:09;8.70;99.90
15967;DHT22;15175;48.154;11.534;2024-02-15T05:24:12;8.70;99.90
15967;DHT22;15175;48.154;11.534;2024-02-15T05:30:16;8.60;99.90
15967;DHT22;15175;48.154;11.534;2024-02-15T05:36:20;8.60;99.90
15967;DHT22;15175;48.154;11.534;2024-02-15T05:42:23;8.60;99.90
15967;DHT22;15175;48.154;11.534;2024-02-15T05:48:27;8.60;99.90
15967;DHT22;15175;48.154;11.534;2024-02-15T05:54:29;8.50;99.90
15967;DHT22;15175;48.154;11.534;2024-02-15T06:00:32;8.50;99.90
15967;DHT22;15175;48.154;11.534;2024-02-15T06:06:36;8.40;99.90
15967;DHT22;15175;48.154;11.534;2024-02-15T06:12:39;8.40;99.90
15967;DHT22;15175;48.154;11.534;2024-02-15T06:18:41;8.40;99.90
15967;DHT22;15175;48.154;11.534;2024-02-15T06:24:45;8.30;99.90
15967;DHT22;15175;48.154;11.534;2024-02-15T06:30:47;8.30;99.90
15967;DHT22;15175;48.154;11.534;2024-02-15T06:37:06;8.30;99.90
15967;DHT22;15175;48.154;11.534;2024-02-15T06:43:27;8.30;99.90
15967;DHT22;15175;48.154;11.534;2024-02-15T06:49:29;8.30;99.90
15967;DHT22;15175;48.154;11.534;2024-02-15T06:55:31;8.30;99.90
15967;DHT22;15175;48.154;11.534;2024-02-15T07:01:36;8.30;99.90
15967;DHT22;15175;48.154;11.534;2024-02-15T07:07:39;8.40;99.90
15967;DHT22;15175;48.154;11.534;2024-02-15T07:13:43;8.40;99.90
15967;DHT22;15175;48.154;11.534;2024-02-15T07:19:47;8.50;99.90
15967;DHT22;15175;48.154;11.534;2024-02-15T07:25:50;8.50;99.90
15967;DHT22;15175;48.154;11.534;2024-02-15T07:31:54;8.70;99.90
15967;DHT22;15175;48.154;11.534;2024-02-15T07:37:58;8.80;99.90
15967;DHT22;15175;48.154;11.534;2024-02-15T07:44:02;8.90;99.90
15967;DHT22;15175;48.154;11.534;2024-02-15T07:50:05;8.90;99.90
15967;DHT22;15175;48.154;11.534;2024-02-15T07:56:12;9.10;99.90
15967;DHT22;15175;48.154;11.534;2024-02-15T08:02:15;9.20;99.90
15967;DHT22;15175;48.154;11.534;2024-02-15T08:08:23;9.20;99.90
15967;DHT22;15175;48.154;11.534;2024-02-15T08:14:26;9.40;99.90
15967;DHT22;15175;48.154;11.534;2024-02-15T08:20:28;9.60;99.90
15967;DHT22;15175;48.154;11.534;2024-02-15T08:26:32;9.80;99.90
15967;DHT22;15175;48.154;11.534;2024-02-15T08:32:37;10.10;99.90
15967;DHT22;15175;48.154;11.534;2024-02-15T08:38:40;10.30;99.90
15967;DHT22;15175;48.154;11.534;2024-02-15T08:44:43;10.50;99.90
15967;DHT22;15175;48.154;11.534;2024-02-15T08:50:46;10.50;99.90
15967;DHT22;15175;48.154;11.534;2024-02-15T08:56:48;10.80;99.90
15967;DHT22;15175;48.154;11.534;2024-02-15T09:02:53;11.20;99.90
15967;DHT22;15175;48.154;11.534;2024-02-15T09:08:56;11.30;99.90
15967;DHT22;15175;48.154;11.534;2024-02-15T09:14:59;11.50;99.90
15967;DHT22;15175;48.154;11.534;2024-02-15T09:21:02;11.60;99.90
15967;DHT22;15175;48.154;11.534;2024-02-15T09:27:08;12.00;99.90
15967;DHT22;15175;48.154;11.534;2024-02-15T09:33:12;11.90;99.90
15967;DHT22;15175;48.154;11.534;2024-02-15T09:39:15;12.00;99.90
15967;DHT22;15175;48.154;11.534;2024-02-15T09:45:20;12.10;99.90
15967;DHT22;15175;48.154;11.534;2024-02-15T09:51:26;12.10;99.90
15967;DHT22;15175;48.154;11.534;2024-02-15T09:57:29;12.30;99.90
15967;DHT22;15175;48.154;11.534;2024-02-15T10:03:35;12.40;99.90
15967;DHT22;15175;48.154;11.534;2024-02-15T10:09:39;12.60;99.90
15967;DHT22;15175;48.154;11.534;2024-02-15T10:15:43;12.90;99.90
15967;DHT22;15175;48.154;11.534;2024-02-15T10:21:51;13.10;99.90
15967;DHT22;15175;48.154;11.534;2024-02-15T10:28:02;13.10;99.90
15967;DHT22;15175;48.154;11.534;2024-02-15T10:34:08;13.30;99.90
15967;DHT22;15175;48.154;11.534;2024-02-15T10:40:13;13.30;99.90
15967;DHT22;15175;48.154;11.534;2024-02-15T10:46:16;13.40;99.90
15967;DHT22;15175;48.154;11.534;2024-02-15T10:52:21;13.30;99.90
15967;DHT22;15175;48.154;11.534;2024-02-15T10:58:29;13.40;99.90
15967;DHT22;15175;48.154;11.534;2024-02-15T11:04:36;13.60;99.90
15967;DHT22;15175;48.154;11.534;2024-02-15T11:10:39;13.70;99.90
15967;DHT22;15175;48.154;11.534;2024-02-15T11:16:45;14.00;99.90
15967;DHT22;15175;48.154;11.534;2024-02-15T11:22:56;14.00;99.90
15967;DHT22;15175;48.154;11.534;2024-02-15T11:28:59;14.00;99.90
15967;DHT22;15175;48.154;11.534;2024-02-15T11:35:07;14.20;99.90
15967;DHT22;15175;48.154;11.534;2024-02-15T11:41:19;14.30;99.90
15967;DHT22;15175;48.154;11.534;2024-02-15T11:47:23;14.50;99.90
15967;DHT22;15175;48.154;11.534;2024-02-15T11:53:29;14.60;99.90
15967;DHT22;15175;48.154;11.534;2024-02-15T11:59:37;14.70;99.90
15967;DHT22;15175;48.154;11.534;2024-02-15T12:05:44;14.80;99.90
15967;DHT22;15175;48.154;11.534;2024-02-15T12:12:05;14.80;99.90
15967;DHT22;15175;48.154;11.534;2024-02-15T12:18:25;15.00;99.90
15967;DHT22;15175;48.154;11.534;2024-02-15T12:24:44;15.00;99.90
15967;DHT22;15175;48.154;11.534;2024-02-15T12:30:55;15.00;99.90
15967;DHT22;15175;48.154;11.534;2024-02-15T12:37:07;15.10;99.90
15967;DHT22;15175;48.154;11.534;2024-02-15T12:43:11;15.20;99.90
15967;DHT22;15175;48.154;11.534;2024-02-15T12:49:28;15.30;99.90
15967;DHT22;15175;48.154;11.534;2024-02-15T12:55:32;15.40;99.90
15967;DHT22;15175;48.154;11.534;2024-02-15T13:01:36;15.50;99.90
15967;DHT22;15175;48.154;11.534;2024-02-15T13:07:40;15.80;99.90
15967;DHT22;15175;48.154;11.534;2024-02-15T13:13:43;16.00;99.90
15967;DHT22;15175;48.154;11.534;2024-02-15T13:19:45;16.20;99.90
15967;DHT22;15175;48.154;11.534;2024-02-15T13:25:51;16.40;99.90
15967;DHT22;15175;48.154;11.534;2024-02-15T13:31:54;16.50;99.90
15967;DHT22;15175;48.154;11.534;2024-02-15T13:37:56;16.50;99.90
15967;DHT22;15175;48.154;11.534;2024-02-15T13:44:01;16.40;99.90
15967;DHT22;15175;48.154;11.534;2024-02-15T13:50:03;16.40;99.90
15967;DHT22;15175;48.154;11.534;2024-02-15T13:56:07;16.50;99.90
15967;DHT22;15175;48.154;11.534;2024-02-15T14:02:11;16.90;99.90
15967;DHT22;15175;48.154;11.534;2024-02-15T14:08:15;16.40;99.90
15967;DHT22;15175;48.154;11.534;2024-02-15T14:14:17;16.30;99.90
15967;DHT22;15175;48.154;11.534;2024-02-15T14:20:21;16.80;99.90
15967;DHT22;15175;48.154;11.534;2024-02-15T14:26:24;16.80;99.90
15967;DHT22;15175;48.154;11.534;2024-02-15T14:32:29;17.00;99.90
15967;DHT22;15175;48.154;11.534;2024-02-15T14:38:50;17.00;99.90
15967;DHT22;15175;48.154;11.534;2024-02-15T14:44:55;16.90;99.90
15967;DHT22;15175;48.154;11.534;2024-02-15T14:50:57;16.90;99.90
15967;DHT22;15175;48.154;11.534;2024-02-15T14:57:01;16.70;99.90
15967;DHT22;15175;48.154;11.534;2024-02-15T15:03:04;16.40;99.90
15967;DHT22;15175;48.154;11.534;2024-02-15T15:09:06;16.30;99.90
15967;DHT22;15175;48.154;11.534;2024-02-15T15:15:27;16.20;99.90
15967;DHT22;15175;48.154;11.534;2024-02-15T15:21:30;16.00;99.90
15967;DHT22;15175;48.154;11.534;2024-02-15T15:27:33;15.90;99.90
15967;DHT22;15175;48.154;11.534;2024-02-15T15:33:39;15.60;99.90
15967;DHT22;15175;48.154;11.534;2024-02-15T15:39:41;15.50;99.90
15967;DHT22;15175;48.154;11.534;2024-02-15T15:45:44;15.40;99.90
15967;DHT22;15175;48.154;11.534;2024-02-15T15:51:47;15.40;99.90
15967;DHT22;15175;48.154;11.534;2024-02-15T15:57:50;15.30;99.90
15967;DHT22;15175;48.154;11.534;2024-02-15T16:03:53;15.20;99.90
15967;DHT22;15175;48.154;11.534;2024-02-15T16:09:56;15.10;99.90
15967;DHT22;15175;48.154;11.534;2024-02-15T16:15:59;14.80;99.90
15967;DHT22;15175;48.154;11.534;2024-02-15T16:22:03;14.70;99.90
15967;DHT22;15175;48.154;11.534;2024-02-15T16:28:07;14.60;99.90
15967;DHT22;15175;48.154;11.534;2024-02-15T16:34:10;14.50;99.90
15967;DHT22;15175;48.154;11.534;2024-02-15T16:40:13;14.40;99.90
15967;DHT22;15175;48.154;11.534;2024-02-15T16:46:16;14.40;99.90
15967;DHT22;15175;48.154;11.534;2024-02-15T16:52:18;14.30;99.90
15967;DHT22;15175;48.154;11.534;2024-02-15T16:58:21;14.20;99.90
15967;DHT22;15175;48.154;11.534;2024-02-15T17:04:26;14.10;99.90
15967;DHT22;15175;48.154;11.534;2024-02-15T17:10:29;14.00;99.90
15967;DHT22;15175;48.154;11.534;2024-02-15T17:16:31;14.00;99.90
15967;DHT22;15175;48.154;11.534;2024-02-15T17:22:34;13.90;99.90
15967;DHT22;15175;48.154;11.534;2024-02-15T17:28:37;13.80;99.90
15967;DHT22;15175;48.154;11.534;2024-02-15T17:34:39;13.70;99.90
15967;DHT22;15175;48.154;11.534;2024-02-15T17:40:43;13.60;99.90
15967;DHT22;15175;48.154;11.534;2024-02-15T17:46:45;13.50;99.90
15967;DHT22;15175;48.154;11.534;2024-02-15T17:52:48;13.40;99.90
15967;DHT22;15175;48.154;11.534;2024-02-15T17:58:51;13.20;99.90
15967;DHT22;15175;48.154;11.534;2024-02-15T18:04:54;13.10;99.90
15967;DHT22;15175;48.154;11.534;2024-02-15T18:10:56;13.00;99.90
15967;DHT22;15175;48.154;11.534;2024-02-15T18:17:02;12.90;99.90
15967;DHT22;15175;48.154;11.534;2024-02-15T18:23:05;12.80;99.90
15967;DHT22;15175;48.154;11.534;2024-02-15T18:29:09;12.70;99.90
15967;DHT22;15175;48.154;11.534;2024-02-15T18:35:14;12.60;99.90
15967;DHT22;15175;48.154;11.534;2024-02-15T18:41:17;12.50;99.90
15967;DHT22;15175;48.154;11.534;2024-02-15T18:47:19;12.50;99.90
15967;DHT22;15175;48.154;11.534;2024-02-15T18:53:23;12.40;99.90
15967;DHT22;15175;48.154;11.534;2024-02-15T18:59:26;12.30;99.90
15967;DHT22;15175;48.154;11.534;2024-02-15T19:05:30;12.20;99.90
15967;DHT22;15175;48.154;11.534;2024-02-15T19:11:33;12.00;99.90
15967;DHT22;15175;48.154;11.534;2024-02-15T19:17:37;12.00;99.90
15967;DHT22;15175;48.154;11.534;2024-02-15T19:23:40;11.90;99.90
15967;DHT22;15175;48.154;11.534;2024-02-15T19:29:43;11.90;99.90
15967;DHT22;15175;48.154;11.534;2024-02-15T19:35:46;11.80;99.90
15967;DHT22;15175;48.154;11.534;2024-02-15T19:41:48;11.70;99.90
15967;DHT22;15175;48.154;11.534;2024-02-15T19:47:52;11.70;99.90
15967;DHT22;15175;48.154;11.534;2024-02-15T19:53:57;11.60;99.90
15967;DHT22;15175;48.154;11.534;2024-02-15T19:59:59;11.40;99.90
15967;DHT22;15175;48.154;11.534;2024-02-15T20:06:04;11.40;99.90
15967;DHT22;15175;48.154;11.534;2024-02-15T20:12:07;11.30;99.90
15967;DHT22;15175;48.154;11.534;2024-02-15T20:18:09;11.20;99.90
15967;DHT22;15175;48.154;11.534;2024-02-15T20:24:12;11.10;99.90
15967;DHT22;15175;48.154;11.534;2024-02-15T20:30:15;11.10;99.90
15967;DHT22;15175;48.154;11.534;2024-02-15T20:36:18;11.00;99.90
15967;DHT22;15175;48.154;11.534;2024-02-15T20:42:22;11.00;99.90
15967;DHT22;15175;48.154;11.534;2024-02-15T20:48:24;10.90;99.90
15967;DHT22;15175;48.154;11.534;2024-02-15T20:54:27;10.90;99.90
15967;DHT22;15175;48.154;11.534;2024-02-15T21:00:31;10.80;99.90
15967;DHT22;15175;48.154;11.534;2024-02-15T21:06:34;10.70;99.90
15967;DHT22;15175;48.154;11.534;2024-02-15T21:12:38;10.60;99.90
15967;DHT22;15175;48.154;11.534;2024-02-15T21:18:41;10.50;99.90
15967;DHT22;15175;48.154;11.534;2024-02-15T21:24:43;10.50;99.90
15967;DHT22;15175;48.154;11.534;2024-02-15T21:30:46;10.50;99.90
15967;DHT22;15175;48.154;11.534;2024-02-15T21:36:49;10.40;99.90
15967;DHT22;15175;48.154;11.534;2024-02-15T21:42:52;10.30;99.90
15967;DHT22;15175;48.154;11.534;2024-02-15T21:48:54;10.20;99.90
15967;DHT22;15175;48.154;11.534;2024-02-15T21:54:58;10.00;99.90
15967;DHT22;15175;48.154;11.534;2024-02-15T22:01:00;10.00;99.90
15967;DHT22;15175;48.154;11.534;2024-02-15T22:07:02;9.90;99.90
15967;DHT22;15175;48.154;11.534;2024-02-15T22:13:07;9.90;99.90
15967;DHT22;15175;48.154;11.534;2024-02-15T22:19:10;9.90;99.90
15967;DHT22;15175;48.154;11.534;2024-02-15T22:25:13;9.80;99.90
15967;DHT22;15175;48.154;11.534;2024-02-15T22:31:17;9.90;99.90
15967;DHT22;15175;48.154;11.534;2024-02-15T22:37:19;9.90;99.90
15967;DHT22;15175;48.154;11.534;2024-02-15T22:43:22;9.80;99.90
15967;DHT22;15175;48.154;11.534;2024-02-15T22:49:26;9.70;99.90
15967;DHT22;15175;48.154;11.534;2024-02-15T22:55:28;9.70;99.90
15967;DHT22;15175;48.154;11.534;2024-02-15T23:01:31;9.60;99.90
15967;DHT22;15175;48.154;11.534;2024-02-15T23:07:35;9.50;99.90
15967;DHT22;15175;48.154;11.534;2024-02-15T23:13:37;9.40;99.90
15967;DHT22;15175;48.154;11.534;2024-02-15T23:19:40;9.30;99.90
15967;DHT22;15175;48.154;11.534;2024-02-15T23:25:44;9.20;99.90
15967;DHT22;15175;48.154;11.534;2024-02-15T23:31:46;9.10;99.90
15967;DHT22;15175;48.154;11.534;2024-02-15T23:37:48;9.10;99.90
15967;DHT22;15175;48.154;11.534;2024-02-15T23:44:09;8.90;99.90
15967;DHT22;15175;48.154;11.534;2024-02-15T23:50:16;8.70;99.90
15967;DHT22;15175;48.154;11.534;2024-02-15T23:56:19;8.70;99.90
